Time;durP1;ratioP1;P1;durP2;ratioP2;P2;SDS_P1;SDS_P2;PMS_P1;PMS_P2;Temp;Humidity;BMP_temperature;BMP_pressure;BME280_temperature;BME280_humidity;BME280_pressure;Samples;Min_cycle;Max_cycle;Signal;HPM_P1;HPM_P2
2023/07/11 00:00:59;;;;;;;13.87;12.40;;;;;;;17.97;100.00;96493.44;7400734;19;20406;-89
2023/07/11 00:03:26;;;;;;;14.07;12.57;;;;;;;17.35;100.00;96366.81;7398781;19;20425;-89
2023/07/11 00:05:59;;;;;;;15.37;13.77;;;;;;;17.66;100.00;96430.50;7398735;19;20408;-90
2023/07/11 00:08:27;;;;;;;13.47;12.17;;;;;;;17.36;100.00;96406.56;7397485;19;20442;-89
2023/07/11 00:10:54;;;;;;;13.00;11.80;;;;;;;17.67;100.00;96444.63;7396700;19;20375;-89
2023/07/11 00:13:22;;;;;;;13.97;12.50;;;;;;;17.40;100.00;96460.03;7398403;19;20730;-90
2023/07/11 00:16:00;;;;;;;13.20;11.97;;;;;;;17.57;100.00;96466.69;7400119;19;20382;-89
2023/07/11 00:18:28;;;;;;;13.80;12.33;;;;;;;17.57;100.00;96461.34;7402588;19;20449;-91
2023/07/11 00:20:56;;;;;;;14.33;13.00;;;;;;;17.94;100.00;96498.78;7430852;19;20452;-89
2023/07/11 00:23:23;;;;;;;13.13;11.43;;;;;;;17.75;100.00;96462.28;7426171;19;20381;-89
2023/07/11 00:25:50;;;;;;;14.03;12.60;;;;;;;18.13;100.00;96501.22;7421383;19;20398;-89
2023/07/11 00:28:18;;;;;;;12.97;11.27;;;;;;;18.00;100.00;96508.75;7396066;19;20943;-89
2023/07/11 00:30:47;;;;;;;14.43;12.83;;;;;;;18.10;100.00;96563.50;7398260;19;20396;-89
2023/07/11 00:33:15;;;;;;;13.97;12.67;;;;;;;16.72;100.00;96426.47;7397999;19;20382;-89
2023/07/11 00:35:49;;;;;;;15.03;13.10;;;;;;;17.76;100.00;96551.31;7399549;19;20387;-89
2023/07/11 00:38:17;;;;;;;15.67;14.07;;;;;;;17.71;100.00;96510.41;7398347;19;20457;-89
2023/07/11 00:40:46;;;;;;;18.10;12.67;;;;;;;18.13;100.00;96570.78;7397657;19;20384;-90
2023/07/11 00:43:16;;;;;;;15.43;12.60;;;;;;;18.09;100.00;96567.34;7400421;19;20401;-89
2023/07/11 00:46:02;;;;;;;13.03;11.80;;;;;;;18.35;100.00;96571.00;7417905;19;20380;-89
2023/07/11 00:48:34;;;;;;;16.13;11.40;;;;;;;16.52;100.00;96306.44;7424204;19;20513;-88
2023/07/11 00:51:03;;;;;;;16.10;13.40;;;;;;;17.95;100.00;96527.84;7426102;19;20390;-89
2023/07/11 00:53:31;;;;;;;15.47;12.50;;;;;;;17.03;100.00;96454.69;7427650;19;20401;-88
2023/07/11 00:56:05;;;;;;;13.97;12.57;;;;;;;17.09;100.00;96499.41;7403697;19;20425;-89
2023/07/11 00:58:36;;;;;;;13.67;12.37;;;;;;;17.41;100.00;96536.44;7401780;19;20418;-89
2023/07/11 01:01:04;;;;;;;16.03;12.17;;;;;;;17.39;100.00;96498.59;7397056;19;20902;-89
2023/07/11 01:03:31;;;;;;;14.83;12.20;;;;;;;17.13;100.00;96438.78;7398111;19;20397;-89
2023/07/11 01:05:59;;;;;;;13.63;12.33;;;;;;;17.21;100.00;96450.28;7400159;19;20396;-89
2023/07/11 01:08:26;;;;;;;13.93;12.63;;;;;;;16.89;100.00;96460.63;7395564;19;20421;-89
2023/07/11 01:10:53;;;;;;;18.30;14.60;;;;;;;17.23;100.00;96538.09;7399184;19;20365;-89
2023/07/11 01:13:20;;;;;;;16.13;14.43;;;;;;;17.35;100.00;96524.50;7397707;19;20410;-89
2023/07/11 01:15:48;;;;;;;14.77;13.30;;;;;;;17.16;100.00;96546.06;7400726;19;20407;-89
2023/07/11 01:18:16;;;;;;;15.73;13.70;;;;;;;15.45;100.00;96290.16;7417142;19;20985;-89
2023/07/11 01:20:43;;;;;;;13.87;12.57;;;;;;;16.69;100.00;96437.84;7417755;19;20380;-89
2023/07/11 01:23:10;;;;;;;13.77;12.47;;;;;;;16.68;100.00;96498.50;7396699;19;20395;-89
2023/07/11 01:25:39;;;;;;;15.40;13.57;;;;;;;16.03;100.00;96410.66;7398779;19;20396;-89
2023/07/11 01:28:06;;;;;;;14.93;13.43;;;;;;;16.04;100.00;96379.41;7394017;19;20957;-89
2023/07/11 01:30:33;;;;;;;16.43;13.87;;;;;;;16.73;100.00;96463.47;7397505;19;20407;-90
2023/07/11 01:33:00;;;;;;;13.57;12.37;;;;;;;17.45;100.00;96545.25;7396761;19;20757;-89
2023/07/11 01:35:27;;;;;;;13.13;11.77;;;;;;;15.95;100.00;96318.31;7398540;19;20396;-90
2023/07/11 01:37:55;;;;;;;14.43;13.03;;;;;;;16.80;100.00;96460.13;7396146;19;20406;-89
2023/07/11 01:40:22;;;;;;;16.30;14.60;;;;;;;16.70;100.00;96480.25;7394944;19;20388;-89
2023/07/11 01:42:50;;;;;;;14.57;13.23;;;;;;;16.26;100.00;96419.34;7398487;19;20400;-89
2023/07/11 01:45:17;;;;;;;13.70;12.40;;;;;;;16.12;100.00;96367.69;7398278;19;20896;-89
2023/07/11 01:47:46;;;;;;;13.97;12.57;;;;;;;16.68;100.00;96425.63;7400652;19;20412;-89
2023/07/11 01:50:13;;;;;;;15.50;13.27;;;;;;;16.92;100.00;96451.88;7406238;19;20381;-90
2023/07/11 01:52:40;;;;;;;15.50;13.83;;;;;;;16.42;100.00;96429.84;7402264;19;20396;-90
2023/07/11 01:55:10;;;;;;;17.50;13.50;;;;;;;17.25;100.00;96525.94;7405738;19;20390;-89
2023/07/11 01:57:36;;;;;;;17.33;13.93;;;;;;;16.08;100.00;96380.22;7403226;19;20473;-90
2023/07/11 02:00:06;;;;;;;14.20;12.50;;;;;;;16.93;100.00;96479.34;7404919;19;20762;-90
2023/07/11 02:02:33;;;;;;;15.10;13.23;;;;;;;16.32;100.00;96387.81;7403911;19;20384;-90
2023/07/11 02:05:00;;;;;;;18.50;14.00;;;;;;;17.07;100.00;96498.22;7405252;19;20404;-89
2023/07/11 02:07:28;;;;;;;14.70;13.30;;;;;;;17.12;100.00;96514.72;7403776;19;20382;-90
2023/07/11 02:09:55;;;;;;;15.30;12.97;;;;;;;16.70;100.00;96445.53;7400944;19;20384;-90
2023/07/11 02:12:22;;;;;;;14.80;12.23;;;;;;;16.88;100.00;96461.75;7417355;19;20393;-90
2023/07/11 02:14:50;;;;;;;14.90;13.43;;;;;;;16.98;100.00;96473.72;7424919;19;20421;-89
2023/07/11 02:17:17;;;;;;;15.80;14.33;;;;;;;16.57;100.00;96395.38;7428575;19;20397;-89
2023/07/11 02:19:47;;;;;;;14.13;12.83;;;;;;;16.03;100.00;96333.31;7411798;19;20382;-89
2023/07/11 02:22:14;;;;;;;13.57;12.27;;;;;;;16.16;100.00;96400.53;7420693;19;20397;-93
2023/07/11 02:24:42;;;;;;;15.17;13.77;;;;;;;16.09;100.00;96400.44;7432229;19;20392;-91
2023/07/11 02:27:09;;;;;;;15.67;13.67;;;;;;;16.17;100.00;96455.44;7419426;19;20404;-89
2023/07/11 02:29:36;;;;;;;15.03;13.70;;;;;;;15.16;100.00;96319.03;7402422;19;20947;-90
2023/07/11 02:32:03;;;;;;;18.00;13.70;;;;;;;16.20;100.00;96484.06;7405757;19;20393;-89
2023/07/11 02:34:30;;;;;;;17.27;14.13;;;;;;;16.45;100.00;96476.44;7401182;19;20372;-90
2023/07/11 02:36:57;;;;;;;14.63;13.10;;;;;;;15.05;100.00;96280.78;7405735;19;20392;-90
2023/07/11 02:39:24;;;;;;;15.23;13.60;;;;;;;16.24;100.00;96476.88;7403133;19;20377;-89
2023/07/11 02:41:51;;;;;;;15.13;13.67;;;;;;;14.86;100.00;96270.22;7406185;19;20383;-89
2023/07/11 02:44:18;;;;;;;15.27;13.77;;;;;;;16.41;100.00;96516.38;7406812;19;20376;-90
2023/07/11 02:46:46;;;;;;;14.00;12.70;;;;;;;16.47;100.00;96493.63;7406721;19;20373;-90
2023/07/11 02:49:13;;;;;;;15.10;13.60;;;;;;;15.98;100.00;96450.19;7404108;19;20420;-88
2023/07/11 02:51:40;;;;;;;14.73;13.23;;;;;;;14.85;100.00;96316.59;7407124;19;20393;-88
2023/07/11 02:54:07;;;;;;;13.33;11.93;;;;;;;15.18;100.00;96420.66;7408399;19;20796;-89
2023/07/11 02:56:34;;;;;;;13.90;12.73;;;;;;;15.79;100.00;96446.47;7408147;19;20391;-90
2023/07/11 02:59:01;;;;;;;14.47;12.90;;;;;;;16.18;100.00;96459.66;7402979;19;20789;-88
2023/07/11 03:01:33;;;;;;;17.97;13.73;;;;;;;15.36;100.00;96335.72;7408403;19;20400;-88
2023/07/11 03:04:00;;;;;;;14.13;12.27;;;;;;;16.02;100.00;96449.09;7403628;19;20371;-89
2023/07/11 03:06:28;;;;;;;15.70;13.13;;;;;;;14.21;100.00;96175.19;7407885;19;20372;-90
2023/07/11 03:08:55;;;;;;;15.30;13.70;;;;;;;15.27;100.00;96425.75;7403966;19;20408;-89
2023/07/11 03:11:22;;;;;;;16.10;13.73;;;;;;;15.65;100.00;96406.25;7409110;19;20459;-89
2023/07/11 03:13:49;;;;;;;14.93;12.17;;;;;;;16.00;100.00;96446.03;7407107;19;20751;-89
2023/07/11 03:16:16;;;;;;;20.10;14.13;;;;;;;14.35;100.00;96297.78;7404376;19;20380;-88
2023/07/11 03:18:43;;;;;;;19.73;12.20;;;;;;;15.78;100.00;96508.94;7405473;19;20440;-89
2023/07/11 03:21:10;;;;;;;15.30;13.67;;;;;;;15.86;100.00;96483.91;7406141;19;20399;-89
2023/07/11 03:23:36;;;;;;;17.97;14.10;;;;;;;15.83;100.00;96505.94;7403470;19;20372;-89
2023/07/11 03:26:04;;;;;;;17.13;12.83;;;;;;;15.62;100.00;96482.38;7402968;19;20380;-88
2023/07/11 03:28:32;;;;;;;17.43;13.30;;;;;;;15.13;100.00;96388.97;7405196;19;20432;-90
2023/07/11 03:30:59;;;;;;;17.40;13.43;;;;;;;15.50;100.00;96439.88;7406805;19;20391;-89
2023/07/11 03:33:26;;;;;;;21.37;14.73;;;;;;;15.15;100.00;96385.97;7425557;19;20419;-88
2023/07/11 03:35:53;;;;;;;22.53;13.63;;;;;;;15.43;100.00;96426.41;7424600;19;20406;-89
2023/07/11 03:38:20;;;;;;;16.97;12.70;;;;;;;14.78;100.00;96349.94;7424444;19;20417;-87
2023/07/11 03:40:47;;;;;;;18.83;15.00;;;;;;;14.12;100.00;96315.53;7407953;19;20376;-89
2023/07/11 03:43:14;;;;;;;20.10;14.77;;;;;;;15.42;100.00;96437.44;7402607;19;20375;-88
2023/07/11 03:45:48;;;;;;;16.40;13.07;;;;;;;15.59;100.00;96439.63;7399296;19;20411;-89
2023/07/11 03:48:17;;;;;;;20.97;13.80;;;;;;;15.26;100.00;96401.00;7399097;19;20445;-89
2023/07/11 03:50:44;;;;;;;18.37;15.40;;;;;;;14.80;100.00;96346.91;7426600;19;20385;-89
2023/07/11 03:53:11;;;;;;;21.17;14.57;;;;;;;15.64;100.00;96464.13;7432256;19;20403;-90
2023/07/11 03:55:41;;;;;;;14.87;13.40;;;;;;;15.21;100.00;96395.19;7407150;19;20395;-88
2023/07/11 03:58:09;;;;;;;16.00;14.27;;;;;;;15.81;100.00;96497.53;7402050;19;20433;-89
2023/07/11 04:00:36;;;;;;;16.60;14.77;;;;;;;15.57;100.00;96447.22;7403455;19;20396;-88
2023/07/11 04:03:03;;;;;;;19.13;15.87;;;;;;;15.80;100.00;96476.56;7405552;19;20452;-88
2023/07/11 04:05:30;;;;;;;14.80;12.30;;;;;;;15.36;100.00;96395.09;7404442;19;20783;-89
2023/07/11 04:07:57;;;;;;;15.70;14.20;;;;;;;15.95;100.00;96483.69;7405847;19;20431;-88
2023/07/11 04:10:24;;;;;;;18.33;13.63;;;;;;;16.06;100.00;96491.84;7403590;19;20941;-88
2023/07/11 04:12:51;;;;;;;14.07;12.57;;;;;;;15.95;100.00;96447.09;7408315;19;20390;-88
2023/07/11 04:15:18;;;;;;;14.80;13.40;;;;;;;15.80;100.00;96416.03;7407425;19;20380;-89
2023/07/11 04:17:45;;;;;;;17.10;13.10;;;;;;;15.14;100.00;96321.28;7405739;19;20423;-89
2023/07/11 04:20:12;;;;;;;15.27;13.73;;;;;;;16.14;100.00;96480.16;7403174;19;20929;-88
2023/07/11 04:22:42;;;;;;;14.93;13.67;;;;;;;15.83;100.00;96419.88;7406316;19;20375;-88
2023/07/11 04:25:09;;;;;;;15.93;14.17;;;;;;;15.86;100.00;96416.47;7399599;19;20403;-88
2023/07/11 04:27:36;;;;;;;14.33;12.93;;;;;;;16.45;100.00;96458.50;7399887;19;20765;-88
2023/07/11 04:30:24;;;;;;;15.90;13.90;;;;;;;15.94;100.00;96423.47;7398856;19;20380;-89
2023/07/11 04:32:51;;;;;;;14.57;13.17;;;;;;;16.36;100.00;96438.53;7397948;19;20389;-88
2023/07/11 04:35:19;;;;;;;18.30;13.73;;;;;;;16.37;100.00;96443.53;7401361;19;20355;-88
2023/07/11 04:37:45;;;;;;;16.50;14.90;;;;;;;16.25;100.00;96481.09;7396679;19;20420;-89
2023/07/11 04:40:13;;;;;;;15.70;14.27;;;;;;;15.97;100.00;96446.75;7398301;19;20396;-88
2023/07/11 04:42:40;;;;;;;15.27;13.77;;;;;;;16.41;100.00;96499.59;7400945;19;20386;-88
2023/07/11 04:45:08;;;;;;;15.23;12.83;;;;;;;16.47;100.00;96487.50;7401846;19;20429;-89
2023/07/11 04:47:36;;;;;;;13.20;11.97;;;;;;;16.90;100.00;96496.88;7401862;19;20451;-89
2023/07/11 04:50:03;;;;;;;17.20;14.33;;;;;;;16.57;100.00;96416.72;7402700;19;20401;-88
2023/07/11 04:52:31;;;;;;;19.10;13.10;;;;;;;16.79;100.00;96447.91;7402666;19;20363;-87
2023/07/11 04:54:58;;;;;;;15.33;13.57;;;;;;;16.95;100.00;96427.09;7419779;19;20355;-88
2023/07/11 04:57:26;;;;;;;15.40;13.87;;;;;;;17.58;100.00;96514.44;7416158;19;20407;-88
2023/07/11 04:59:52;;;;;;;18.53;14.63;;;;;;;17.63;100.00;96476.69;7421075;19;20397;-89
2023/07/11 05:02:19;;;;;;;16.93;14.47;;;;;;;17.31;100.00;96451.53;7419377;19;20388;-88
2023/07/11 05:04:47;;;;;;;23.23;14.53;;;;;;;17.92;100.00;96480.41;7414081;19;20393;-88
2023/07/11 05:07:14;;;;;;;16.53;14.20;;;;;;;18.16;100.00;96494.34;7399425;19;20478;-88
2023/07/11 05:09:41;;;;;;;15.93;14.33;;;;;;;17.79;100.00;96423.00;7398919;19;20400;-89
2023/07/11 05:12:24;;;;;;;17.87;13.50;;;;;;;17.91;100.00;96470.09;7398756;19;20986;-89
2023/07/11 05:14:51;;;;;;;17.30;15.60;;;;;;;17.40;100.00;96423.38;7396657;19;20759;-88
2023/07/11 05:17:18;;;;;;;18.70;13.77;;;;;;;16.78;100.00;96291.47;7399684;19;20389;-89
2023/07/11 05:19:45;;;;;;;15.50;14.00;;;;;;;16.60;100.00;96283.28;7399450;19;20385;-90
2023/07/11 05:22:12;;;;;;;20.50;13.90;;;;;;;17.61;100.00;96454.13;7398208;19;20380;-87
2023/07/11 05:24:39;;;;;;;24.33;16.20;;;;;;;16.69;100.00;96302.44;7402218;19;20381;-87
2023/07/11 05:27:06;;;;;;;31.00;16.17;;;;;;;18.06;100.00;96462.94;7405201;19;20388;-88
2023/07/11 05:29:35;;;;;;;23.80;15.07;;;;;;;18.32;100.00;96457.38;7403490;19;20381;-88
2023/07/11 05:32:02;;;;;;;20.40;13.90;;;;;;;18.93;100.00;96487.97;7400884;19;20731;-88
2023/07/11 05:34:30;;;;;;;25.03;14.70;;;;;;;18.84;100.00;96464.22;7403137;19;20368;-88
2023/07/11 05:37:00;;;;;;;25.30;15.47;;;;;;;18.98;100.00;96468.84;7402187;19;20377;-88
2023/07/11 05:39:27;;;;;;;19.83;14.80;;;;;;;18.96;100.00;96483.75;7401396;19;20465;-88
2023/07/11 05:41:56;;;;;;;15.97;14.03;;;;;;;18.57;100.00;96436.13;7402675;19;20380;-88
2023/07/11 05:44:23;;;;;;;17.40;15.57;;;;;;;19.15;100.00;96496.88;7403456;19;20403;-88
2023/07/11 05:46:51;;;;;;;15.73;13.93;;;;;;;19.00;100.00;96452.41;7405100;19;20373;-88
2023/07/11 05:49:20;;;;;;;21.67;14.70;;;;;;;19.45;100.00;96485.84;7405378;19;20440;-88
2023/07/11 05:51:47;;;;;;;14.47;12.80;;;;;;;19.38;100.00;96449.06;7405086;19;20372;-89
2023/07/11 05:54:14;;;;;;;18.37;12.23;;;;;;;18.19;100.00;96212.59;7405530;19;20377;-87
2023/07/11 05:56:42;;;;;;;14.10;12.90;;;;;;;18.74;100.00;96295.38;7409312;19;20397;-87
2023/07/11 05:59:09;;;;;;;13.70;12.30;;;;;;;20.13;100.00;96448.34;7406132;19;20777;-87
2023/07/11 06:01:36;;;;;;;18.43;13.73;;;;;;;19.59;100.00;96353.69;7403052;19;20394;-88
2023/07/11 06:04:07;;;;;;;13.00;11.83;;;;;;;19.62;100.00;96308.06;7407373;19;20398;-88
2023/07/11 06:06:40;;;;;;;13.97;12.57;;;;;;;20.69;100.00;96438.66;7403860;19;20374;-88
2023/07/11 06:09:13;;;;;;;12.87;11.67;;;;;;;19.96;100.00;96351.34;7400296;19;20472;-87
2023/07/11 06:11:42;;;;;;;13.20;12.07;;;;;;;20.65;100.00;96398.38;7404402;19;20379;-88
2023/07/11 06:14:10;;;;;;;14.43;13.03;;;;;;;21.16;100.00;96440.78;7401295;19;20386;-91
2023/07/11 06:16:38;;;;;;;12.83;11.63;;;;;;;20.32;100.00;96348.59;7403848;19;20366;-90
2023/07/11 06:19:06;;;;;;;13.50;11.97;;;;;;;20.86;100.00;96363.34;7403122;19;20429;-90
2023/07/11 06:21:33;;;;;;;11.90;10.90;;;;;;;21.53;100.00;96432.13;7403055;19;20416;-91
2023/07/11 06:24:00;;;;;;;13.27;12.17;;;;;;;21.34;100.00;96431.88;7421777;19;20413;-89
2023/07/11 06:26:27;;;;;;;12.97;11.93;;;;;;;21.66;100.00;96450.50;7432099;19;20451;-89
2023/07/11 06:28:55;;;;;;;13.10;11.70;;;;;;;22.04;100.00;96449.44;7432902;19;20430;-89
2023/07/11 06:31:22;;;;;;;12.50;11.30;;;;;;;22.39;100.00;96466.47;7431422;19;20400;-91
2023/07/11 06:33:50;;;;;;;13.43;12.23;;;;;;;22.39;100.00;96431.44;7411532;19;20414;-88
2023/07/11 06:36:17;;;;;;;13.13;11.93;;;;;;;21.92;100.00;96373.78;7402772;19;20385;-87
2023/07/11 06:38:44;;;;;;;13.60;12.30;;;;;;;21.86;100.00;96356.50;7401049;19;20924;-88
2023/07/11 06:41:11;;;;;;;12.90;11.80;;;;;;;23.13;100.00;96474.94;7401877;19;20467;-88
2023/07/11 06:43:38;;;;;;;13.63;12.43;;;;;;;22.33;100.00;96354.91;7404161;19;20398;-91
2023/07/11 06:46:05;;;;;;;14.63;13.63;;;;;;;23.06;100.00;96451.50;7401628;19;20359;-87
2023/07/11 06:48:32;;;;;;;13.43;12.33;;;;;;;23.29;100.00;96485.91;7404113;19;20427;-88
2023/07/11 06:51:02;;;;;;;13.20;12.00;;;;;;;23.51;100.00;96454.78;7401248;19;20492;-91
2023/07/11 06:53:32;;;;;;;13.13;12.13;;;;;;;23.58;100.00;96462.78;7402033;19;20487;-91
2023/07/11 06:56:00;;;;;;;14.03;12.67;;;;;;;23.66;100.00;96478.88;7401038;19;20397;-88
2023/07/11 06:58:27;;;;;;;14.53;12.20;;;;;;;23.67;100.00;96439.91;7400816;19;20418;-88
2023/07/11 07:01:01;;;;;;;13.30;12.27;;;;;;;23.76;100.00;96400.41;7398396;19;20409;-88
2023/07/11 07:03:30;;;;;;;13.90;12.70;;;;;;;24.17;100.00;96491.19;7399354;19;20375;-88
2023/07/11 07:06:01;;;;;;;14.10;12.60;;;;;;;24.19;100.00;96488.88;7399885;19;20347;-89
2023/07/11 07:08:28;;;;;;;12.43;11.33;;;;;;;23.92;100.00;96485.44;7396150;19;20924;-89
2023/07/11 07:10:55;;;;;;;14.90;13.40;;;;;;;23.94;100.00;96480.41;7396773;19;20366;-88
2023/07/11 07:13:23;;;;;;;14.43;13.03;;;;;;;24.16;100.00;96482.31;7397781;19;20369;-89
2023/07/11 07:15:56;;;;;;;14.33;12.93;;;;;;;23.88;100.00;96455.78;7398693;19;20348;-91
2023/07/11 07:18:24;;;;;;;12.90;11.90;;;;;;;24.27;100.00;96452.44;7398558;19;20427;-91
2023/07/11 07:20:52;;;;;;;12.70;11.60;;;;;;;24.33;100.00;96452.75;7400681;19;20377;-91
2023/07/11 07:23:28;;;;;;;14.57;12.80;;;;;;;25.11;100.00;96477.56;7399144;19;20388;-92
2023/07/11 07:25:58;;;;;;;13.80;12.60;;;;;;;24.85;100.00;96423.19;7400874;19;20373;-91
2023/07/11 07:28:27;;;;;;;13.37;12.17;;;;;;;23.88;100.00;96378.22;7397004;19;20411;-91
2023/07/11 07:30:56;;;;;;;15.07;13.77;;;;;;;24.55;100.00;96483.63;7398848;19;20476;-91
2023/07/11 07:33:25;;;;;;;14.07;12.77;;;;;;;25.10;100.00;96486.88;7401051;19;21028;-92
2023/07/11 07:35:57;;;;;;;16.57;12.00;;;;;;;24.84;100.00;96474.97;7397595;19;20402;-91
2023/07/11 07:38:27;;;;;;;13.23;12.13;;;;;;;24.20;100.00;96401.22;7395686;19;20407;-91
2023/07/11 07:40:58;;;;;;;13.00;11.80;;;;;;;25.17;100.00;96476.69;7397965;19;20391;-92
2023/07/11 07:43:26;;;;;;;13.97;12.67;;;;;;;25.39;100.00;96465.41;7399435;19;20726;-91
2023/07/11 07:45:55;;;;;;;14.60;13.30;;;;;;;25.28;100.00;96414.19;7398176;19;20396;-92
2023/07/11 07:48:23;;;;;;;14.40;12.90;;;;;;;25.65;100.00;96467.16;7394594;19;21082;-91
2023/07/11 07:50:50;;;;;;;14.27;12.53;;;;;;;24.92;100.00;96324.88;7399388;19;20416;-91
2023/07/11 07:53:17;;;;;;;12.97;11.87;;;;;;;25.38;100.00;96412.44;7405905;19;20381;-91
2023/07/11 07:55:44;;;;;;;14.27;12.20;;;;;;;25.64;100.00;96466.38;7429509;19;20391;-86
2023/07/11 07:58:13;;;;;;;13.90;12.03;;;;;;;25.75;100.00;96458.03;7421701;19;20373;-85
2023/07/11 08:00:52;;;;;;;14.97;13.47;;;;;;;25.04;100.00;96400.00;7422335;19;20405;-87
2023/07/11 08:03:19;;;;;;;14.10;12.90;;;;;;;26.03;100.00;96398.91;7420996;19;20385;-85
2023/07/11 08:05:46;;;;;;;14.93;13.33;;;;;;;26.46;99.09;96399.34;7402620;19;20379;-87
2023/07/11 08:08:14;;;;;;;14.57;13.33;;;;;;;26.66;97.74;96431.75;7397331;19;20425;-87
2023/07/11 08:10:41;;;;;;;13.63;12.53;;;;;;;26.68;95.18;96387.91;7396614;19;20726;-88
2023/07/11 08:13:08;;;;;;;13.93;12.70;;;;;;;27.08;93.98;96396.47;7399091;19;20379;-87
2023/07/11 08:15:35;;;;;;;13.10;11.30;;;;;;;27.36;92.52;96454.59;7398125;19;20490;-87
2023/07/11 08:18:02;;;;;;;14.83;13.53;;;;;;;27.13;90.95;96400.63;7398782;19;20904;-87
2023/07/11 08:20:29;;;;;;;13.27;12.13;;;;;;;27.42;90.73;96442.00;7397140;19;20385;-87
2023/07/11 08:22:57;;;;;;;12.80;11.80;;;;;;;27.46;87.41;96452.75;7397607;19;21013;-87
2023/07/11 08:25:24;;;;;;;12.50;11.30;;;;;;;26.85;89.25;96377.75;7397983;19;20702;-87
2023/07/11 08:27:50;;;;;;;12.50;11.40;;;;;;;27.64;84.23;96432.03;7396236;19;20409;-87
2023/07/11 08:30:17;;;;;;;11.90;10.90;;;;;;;27.32;83.32;96394.22;7396464;19;20740;-87
2023/07/11 08:32:44;;;;;;;13.20;11.90;;;;;;;27.50;83.28;96435.16;7398037;19;20410;-87
2023/07/11 08:35:11;;;;;;;11.70;10.70;;;;;;;27.20;82.34;96340.66;7398282;19;20387;-87
2023/07/11 08:37:38;;;;;;;10.80;9.80;;;;;;;26.74;79.96;96280.38;7397024;19;20381;-87
2023/07/11 08:40:08;;;;;;;11.13;10.13;;;;;;;27.41;80.08;96366.41;7397486;19;20958;-87
2023/07/11 08:42:41;;;;;;;11.43;10.43;;;;;;;27.43;77.85;96388.44;7399210;19;20369;-87
2023/07/11 08:45:21;;;;;;;12.03;10.90;;;;;;;27.91;76.87;96419.94;7398692;19;20898;-88
2023/07/11 08:48:03;;;;;;;12.20;11.10;;;;;;;28.41;76.55;96401.97;7397868;19;20391;-87
2023/07/11 08:51:04;;;;;;;10.37;9.53;;;;;;;28.87;73.72;96413.19;7400449;19;20395;-88
2023/07/11 08:53:37;;;;;;;10.67;9.57;;;;;;;29.04;70.76;96442.50;7397144;19;20343;-88
2023/07/11 08:56:19;;;;;;;10.13;9.23;;;;;;;28.88;71.03;96425.63;7400301;19;20918;-91
2023/07/11 08:58:49;;;;;;;9.80;8.87;;;;;;;28.17;68.53;96375.16;7401908;19;20796;-90
2023/07/11 09:01:25;;;;;;;10.07;9.17;;;;;;;28.16;70.29;96427.25;7405784;19;20703;-91
2023/07/11 09:03:52;;;;;;;9.70;8.70;;;;;;;28.21;69.87;96429.44;7409040;19;20371;-89
2023/07/11 09:06:22;;;;;;;9.90;9.10;;;;;;;27.78;72.57;96425.41;7406090;19;20471;-88
2023/07/11 09:08:54;;;;;;;10.23;9.30;;;;;;;27.83;73.58;96419.41;7404809;19;20435;-88
2023/07/11 09:11:34;;;;;;;10.27;9.37;;;;;;;28.31;70.68;96363.03;7404707;19;20448;-87
2023/07/11 09:14:01;;;;;;;9.57;8.77;;;;;;;29.13;69.16;96420.00;7406065;19;20368;-88
2023/07/11 09:16:51;;;;;;;8.73;7.97;;;;;;;28.95;68.30;96365.44;7407915;19;20380;-88
2023/07/11 09:19:31;;;;;;;10.00;9.20;;;;;;;28.97;67.26;96390.25;7405908;19;20924;-88
2023/07/11 09:22:19;;;;;;;9.50;8.60;;;;;;;29.08;66.82;96402.28;7403315;19;20388;-88
2023/07/11 09:24:50;;;;;;;8.00;7.33;;;;;;;29.38;65.46;96414.38;7413317;19;20397;-89
2023/07/11 09:27:26;;;;;;;9.37;8.57;;;;;;;28.93;65.95;96401.28;7437751;19;20412;-86
2023/07/11 09:29:54;;;;;;;9.10;8.30;;;;;;;29.29;64.86;96405.41;7437357;19;20395;-87
2023/07/11 09:32:32;;;;;;;8.33;7.43;;;;;;;28.81;64.55;96353.09;7432589;19;20412;-87
2023/07/11 09:35:20;;;;;;;7.93;7.13;;;;;;;29.14;63.26;96378.72;7437947;19;20384;-86
2023/07/11 09:37:52;;;;;;;7.40;6.70;;;;;;;28.84;63.32;96350.22;7414806;19;20427;-90
2023/07/11 09:40:30;;;;;;;8.10;7.40;;;;;;;28.63;64.78;96388.38;7404879;19;20962;-90
2023/07/11 09:42:58;;;;;;;8.40;7.13;;;;;;;28.25;63.79;96343.78;7407636;19;20435;-88
2023/07/11 09:45:36;;;;;;;9.57;7.60;;;;;;;28.99;63.66;96387.88;7403724;19;20945;-87
2023/07/11 09:48:15;;;;;;;9.93;9.03;;;;;;;29.30;62.38;96385.13;7402480;19;20392;-88
2023/07/11 09:51:11;;;;;;;11.73;10.73;;;;;;;29.10;63.80;96385.47;7402873;19;20383;-88
2023/07/11 09:53:45;;;;;;;10.80;9.87;;;;;;;28.67;64.88;96389.00;7404012;19;20375;-88
2023/07/11 09:56:15;;;;;;;10.70;8.83;;;;;;;29.02;66.08;96381.53;7404735;19;20356;-88
2023/07/11 09:58:57;;;;;;;9.47;8.67;;;;;;;29.19;64.24;96361.00;7400354;19;20415;-90
2023/07/11 10:01:32;;;;;;;9.93;8.93;;;;;;;28.91;64.25;96381.91;7403152;19;20731;-90
2023/07/11 10:04:01;;;;;;;8.90;8.07;;;;;;;28.52;64.64;96320.72;7404406;19;20368;-90
2023/07/11 10:06:42;;;;;;;11.00;10.00;;;;;;;29.41;64.42;96380.78;7403948;19;20922;-90
2023/07/11 10:09:12;;;;;;;10.33;9.50;;;;;;;28.97;64.46;96371.19;7400013;19;20400;-91
2023/07/11 10:11:39;;;;;;;8.60;7.80;;;;;;;28.85;64.02;96289.16;7399551;19;20922;-90
2023/07/11 10:14:18;;;;;;;9.87;8.90;;;;;;;29.09;63.16;96313.16;7402942;19;20395;-90
2023/07/11 10:16:47;;;;;;;10.03;9.13;;;;;;;29.32;62.84;96342.59;7402789;19;20390;-90
2023/07/11 10:19:16;;;;;;;9.50;8.60;;;;;;;28.83;65.86;96365.03;7401960;19;20423;-90
2023/07/11 10:21:47;;;;;;;10.67;9.67;;;;;;;29.23;63.25;96330.91;7401921;19;20373;-90
2023/07/11 10:24:21;;;;;;;10.70;9.80;;;;;;;29.55;63.93;96330.44;7404767;19;20360;-88
2023/07/11 10:26:58;;;;;;;11.50;10.40;;;;;;;29.46;63.41;96338.53;7402923;19;20371;-88
2023/07/11 10:29:29;;;;;;;12.37;11.13;;;;;;;29.49;63.00;96312.38;7399729;19;20416;-90
2023/07/11 10:31:59;;;;;;;13.83;9.47;;;;;;;29.99;62.40;96300.91;7399327;19;20416;-88
2023/07/11 10:34:37;;;;;;;9.93;9.13;;;;;;;30.64;60.79;96342.59;7401581;19;20372;-90
2023/07/11 10:37:12;;;;;;;10.80;9.80;;;;;;;30.57;60.18;96329.22;7402091;19;20994;-90
2023/07/11 10:39:45;;;;;;;11.87;9.93;;;;;;;30.78;59.94;96305.69;7401469;19;20373;-90
2023/07/11 10:42:22;;;;;;;10.00;9.13;;;;;;;30.83;59.24;96305.06;7409755;19;20408;-90
2023/07/11 10:44:59;;;;;;;9.80;8.20;;;;;;;30.41;58.62;96340.47;7406482;19;20853;-89
2023/07/11 10:47:33;;;;;;;11.23;8.90;;;;;;;30.59;59.30;96324.84;7406250;19;20931;-88
2023/07/11 10:50:06;;;;;;;9.67;8.83;;;;;;;30.73;58.71;96254.44;7408308;19;20373;-88
2023/07/11 10:52:37;;;;;;;10.23;9.33;;;;;;;30.45;59.42;96305.59;7414806;19;20369;-89
2023/07/11 10:55:18;;;;;;;10.70;9.70;;;;;;;30.17;60.21;96322.00;7419149;19;20414;-87
2023/07/11 10:57:50;;;;;;;11.93;10.83;;;;;;;30.07;60.61;96290.50;7420075;19;20440;-88
2023/07/11 11:00:38;;;;;;;10.33;9.33;;;;;;;30.69;59.32;96297.50;7420005;19;20380;-86
2023/07/11 11:03:31;;;;;;;10.40;8.10;;;;;;;31.03;58.20;96271.75;7406798;19;20732;-88
2023/07/11 11:06:26;;;;;;;10.40;9.40;;;;;;;31.13;57.42;96309.50;7401256;19;20352;-88
2023/07/11 11:09:35;;;;;;;10.00;9.10;;;;;;;31.15;56.69;96282.47;7402743;19;20420;-88
2023/07/11 11:12:31;;;;;;;10.17;9.27;;;;;;;31.63;57.06;96309.81;7400882;19;20376;-88
2023/07/11 11:15:13;;;;;;;9.90;9.00;;;;;;;31.30;55.95;96303.66;7402606;19;20914;-88
2023/07/11 11:18:01;;;;;;;9.10;8.33;;;;;;;31.09;56.52;96259.72;7404830;19;20413;-89
2023/07/11 11:20:35;;;;;;;10.30;9.50;;;;;;;31.06;55.27;96263.38;7401308;19;20377;-89
2023/07/11 11:23:22;;;;;;;10.10;9.10;;;;;;;31.79;54.65;96291.50;7400448;19;20387;-88
2023/07/11 11:26:16;;;;;;;10.43;9.40;;;;;;;31.41;54.69;96239.06;7400001;19;20403;-88
2023/07/11 11:29:05;;;;;;;9.47;8.57;;;;;;;30.89;55.44;96284.88;7403103;19;20409;-88